Time;durP1;ratioP1;P1;durP2;ratioP2;P2;SDS_P1;SDS_P2;PMS_P1;PMS_P2;Temp;Humidity;BMP_temperature;BMP_pressure;BME280_temperature;BME280_humidity;BME280_pressure;Samples;Min_cycle;Max_cycle;Signal;HPM_P1;HPM_P2
2022/11/17 00:00:41;;;;;;;;;;;;;;;;;;6111759;19;1926;-59
2022/11/17 00:02:44;;;;;;;;;;;;;;;;;;6105977;19;2156;-59
2022/11/17 00:04:47;;;;;;;;;;;;;;;;;;6122362;19;2024;-59
2022/11/17 00:06:50;;;;;;;;;;;;;;;;;;6122020;19;1992;-60
2022/11/17 00:08:53;;;;;;;;;;;;;;;;;;6122388;19;2089;-58
2022/11/17 00:10:56;;;;;;;;;;;;;;;;;;6121052;19;1857;-59
2022/11/17 00:15:14;;;;;;;;;;;;;;;;;;6123469;19;1902;-60
2022/11/17 00:17:17;;;;;;;;;;;;;;;;;;6120047;19;1847;-60
2022/11/17 00:21:32;;;;;;;;;;;;;;;;;;6124749;19;1907;-59
2022/11/17 00:25:51;;;;;;;;;;;;;;;;;;6105968;19;1952;-60
2022/11/17 00:27:54;;;;;;;;;;;;;;;;;;6121684;19;1856;-60
2022/11/17 00:29:56;;;;;;;;;;;;;;;;;;6118682;19;1074;-60
2022/11/17 00:34:12;;;;;;;;;;;;;;;;;;6123735;19;1927;-60
2022/11/17 00:36:15;;;;;;;;;;;;;;;;;;6093688;19;2024;-60
2022/11/17 00:38:18;;;;;;;;;;;;;;;;;;6121759;19;1742;-60
2022/11/17 00:40:21;;;;;;;;;;;;;;;;;;6118166;19;2179;-60
2022/11/17 00:42:24;;;;;;;;;;;;;;;;;;6119050;19;2161;-60
2022/11/17 00:44:27;;;;;;;;;;;;;;;;;;6118818;19;1025;-60
2022/11/17 00:46:30;;;;;;;;;;;;;;;;;;6106972;19;2109;-60
2022/11/17 00:48:33;;;;;;;;;;;;;;;;;;6105680;19;1933;-60
2022/11/17 00:50:36;;;;;;;;;;;;;;;;;;6118858;19;1920;-60
2022/11/17 00:52:39;;;;;;;;;;;;;;;;;;6121275;19;1915;-60
2022/11/17 00:54:42;;;;;;;;;;;;;;;;;;6118915;19;2205;-60
2022/11/17 00:56:45;;;;;;;;;;;;;;;;;;6120023;19;1773;-60
2022/11/17 00:58:47;;;;;;;;;;;;;;;;;;6093014;19;1913;-60
2022/11/17 01:00:50;;;;;;;;;;;;;;;;;;6120331;19;1924;-60
2022/11/17 01:02:53;;;;;;;;;;;;;;;;;;6119662;19;1969;-60
2022/11/17 01:04:56;;;;;;;;;;;;;;;;;;6121546;19;1895;-60
2022/11/17 01:06:59;;;;;;;;;;;;;;;;;;6119787;19;1041;-60
2022/11/17 01:09:02;;;;;;;;;;;;;;;;;;6119800;19;2162;-60
2022/11/17 01:11:05;;;;;;;;;;;;;;;;;;6092997;19;1988;-60
2022/11/17 01:13:08;;;;;;;;;;;;;;;;;;6119455;19;1055;-60
2022/11/17 01:15:11;;;;;;;;;;;;;;;;;;6119417;19;2105;-59
2022/11/17 01:17:14;;;;;;;;;;;;;;;;;;6120713;19;2125;-60
2022/11/17 01:19:17;;;;;;;;;;;;;;;;;;6119510;19;1030;-61
2022/11/17 01:21:20;;;;;;;;;;;;;;;;;;6109322;19;2105;-59
2022/11/17 01:23:23;;;;;;;;;;;;;;;;;;6105964;19;2131;-60
2022/11/17 01:25:26;;;;;;;;;;;;;;;;;;6122066;19;2084;-59
2022/11/17 01:27:29;;;;;;;;;;;;;;;;;;6119115;19;1929;-61
2022/11/17 01:29:32;;;;;;;;;;;;;;;;;;6120466;19;1794;-60
2022/11/17 01:31:35;;;;;;;;;;;;;;;;;;6119028;19;1819;-60
2022/11/17 01:33:38;;;;;;;;;;;;;;;;;;6094806;19;2196;-60
2022/11/17 01:35:40;;;;;;;;;;;;;;;;;;6119350;19;2014;-60
2022/11/17 01:37:43;;;;;;;;;;;;;;;;;;6118542;19;1029;-60
2022/11/17 01:39:46;;;;;;;;;;;;;;;;;;6116831;19;1029;-60
2022/11/17 01:41:49;;;;;;;;;;;;;;;;;;6120723;19;2077;-59
2022/11/17 01:43:52;;;;;;;;;;;;;;;;;;6117634;19;1917;-60
2022/11/17 01:45:55;;;;;;;;;;;;;;;;;;6094346;19;2190;-60
2022/11/17 01:47:59;;;;;;;;;;;;;;;;;;6117281;19;971;-60
2022/11/17 01:50:02;;;;;;;;;;;;;;;;;;6117357;19;1814;-60
2022/11/17 01:52:04;;;;;;;;;;;;;;;;;;6118262;19;2095;-60
2022/11/17 01:54:07;;;;;;;;;;;;;;;;;;6116814;19;1030;-60
2022/11/17 01:56:10;;;;;;;;;;;;;;;;;;6100179;19;1919;-60
2022/11/17 01:58:13;;;;;;;;;;;;;;;;;;6113828;19;2091;-60
2022/11/17 02:00:16;;;;;;;;;;;;;;;;;;6119658;19;2088;-60
2022/11/17 02:02:19;;;;;;;;;;;;;;;;;;6119496;19;1911;-60
2022/11/17 02:04:22;;;;;;;;;;;;;;;;;;6119173;19;1962;-60
2022/11/17 02:06:25;;;;;;;;;;;;;;;;;;6119486;19;2116;-61
2022/11/17 02:08:28;;;;;;;;;;;;;;;;;;6091188;19;1759;-60
2022/11/17 02:10:31;;;;;;;;;;;;;;;;;;6119446;19;2090;-65
2022/11/17 02:12:34;;;;;;;;;;;;;;;;;;6118747;19;2150;-63
2022/11/17 02:14:37;;;;;;;;;;;;;;;;;;6116572;19;1937;-62
2022/11/17 02:16:40;;;;;;;;;;;;;;;;;;6120772;19;1622;-64
2022/11/17 02:18:43;;;;;;;;;;;;;;;;;;6104178;19;1101;-65
2022/11/17 02:20:46;;;;;;;;;;;;;;;;;;6105739;19;1871;-63
2022/11/17 02:22:49;;;;;;;;;;;;;;;;;;6118829;19;1852;-63
2022/11/17 02:24:52;;;;;;;;;;;;;;;;;;6119273;19;2014;-62
2022/11/17 02:26:55;;;;;;;;;;;;;;;;;;6120042;19;1931;-64
2022/11/17 02:28:58;;;;;;;;;;;;;;;;;;6118314;19;1816;-63
2022/11/17 02:31:01;;;;;;;;;;;;;;;;;;6092697;19;2021;-61
2022/11/17 02:33:03;;;;;;;;;;;;;;;;;;6118625;19;2152;-64
2022/11/17 02:35:06;;;;;;;;;;;;;;;;;;6118665;19;1837;-64
2022/11/17 02:37:09;;;;;;;;;;;;;;;;;;6117250;19;1909;-64
2022/11/17 02:39:12;;;;;;;;;;;;;;;;;;6116125;19;2099;-59
2022/11/17 02:41:15;;;;;;;;;;;;;;;;;;6118539;19;1901;-60
2022/11/17 02:45:34;;;;;;;;;;;;;;;;;;6117196;19;2083;-60
2022/11/17 02:47:38;;;;;;;;;;;;;;;;;;6116745;19;2183;-59
2022/11/17 02:49:41;;;;;;;;;;;;;;;;;;6115700;19;1046;-60
2022/11/17 02:51:43;;;;;;;;;;;;;;;;;;6118941;19;2083;-60
2022/11/17 02:53:46;;;;;;;;;;;;;;;;;;6099739;19;2019;-60
2022/11/17 02:55:49;;;;;;;;;;;;;;;;;;6111068;19;1961;-60
2022/11/17 02:57:52;;;;;;;;;;;;;;;;;;6116885;19;2154;-60
2022/11/17 02:59:55;;;;;;;;;;;;;;;;;;6117849;19;1920;-60
2022/11/17 03:01:58;;;;;;;;;;;;;;;;;;6119147;19;1849;-58
2022/11/17 03:04:01;;;;;;;;;;;;;;;;;;6115617;19;2114;-60
2022/11/17 03:06:04;;;;;;;;;;;;;;;;;;6090077;19;1886;-60
2022/11/17 03:08:07;;;;;;;;;;;;;;;;;;6118697;19;1795;-60
2022/11/17 03:10:10;;;;;;;;;;;;;;;;;;6117189;19;2077;-60
2022/11/17 03:12:13;;;;;;;;;;;;;;;;;;6119806;19;1879;-59
2022/11/17 03:14:16;;;;;;;;;;;;;;;;;;6119820;19;1248;-59
2022/11/17 03:16:19;;;;;;;;;;;;;;;;;;6109821;19;1945;-60
2022/11/17 03:18:22;;;;;;;;;;;;;;;;;;6107818;19;1925;-60
2022/11/17 03:20:25;;;;;;;;;;;;;;;;;;6122025;19;2067;-60
2022/11/17 03:22:28;;;;;;;;;;;;;;;;;;6121649;19;2150;-60
2022/11/17 03:24:32;;;;;;;;;;;;;;;;;;6121537;19;2045;-60
2022/11/17 03:26:35;;;;;;;;;;;;;;;;;;6122156;19;1880;-60
2022/11/17 03:28:38;;;;;;;;;;;;;;;;;;6094495;19;1901;-60
2022/11/17 03:30:41;;;;;;;;;;;;;;;;;;6121819;19;2116;-60
2022/11/17 03:32:44;;;;;;;;;;;;;;;;;;6120211;19;2083;-60
2022/11/17 03:34:47;;;;;;;;;;;;;;;;;;6125174;19;1966;-60
2022/11/17 03:36:50;;;;;;;;;;;;;;;;;;6121830;19;2140;-60
2022/11/17 03:38:53;;;;;;;;;;;;;;;;;;6121095;19;1712;-60
2022/11/17 03:40:56;;;;;;;;;;;;;;;;;;6098407;19;2015;-60
2022/11/17 03:42:58;;;;;;;;;;;;;;;;;;6123463;19;1665;-60
2022/11/17 03:45:01;;;;;;;;;;;;;;;;;;6120889;19;2119;-60
2022/11/17 03:47:04;;;;;;;;;;;;;;;;;;6123064;19;1916;-59
2022/11/17 03:49:08;;;;;;;;;;;;;;;;;;6122322;19;1926;-59
2022/11/17 03:51:11;;;;;;;;;;;;;;;;;;6108532;19;1902;-65
2022/11/17 03:53:14;;;;;;;;;;;;;;;;;;6109013;19;1749;-66
2022/11/17 03:55:17;;;;;;;;;;;;;;;;;;6121820;19;2101;-65
2022/11/17 03:57:20;;;;;;;;;;;;;;;;;;6121765;19;2080;-65
2022/11/17 03:59:23;;;;;;;;;;;;;;;;;;6117928;19;1021;-66
2022/11/17 04:01:26;;;;;;;;;;;;;;;;;;6121203;19;2042;-64
2022/11/17 04:03:28;;;;;;;;;;;;;;;;;;6095172;19;2196;-64
2022/11/17 04:05:31;;;;;;;;;;;;;;;;;;6123669;19;2191;-64
2022/11/17 04:07:34;;;;;;;;;;;;;;;;;;6121675;19;1895;-64
2022/11/17 04:09:37;;;;;;;;;;;;;;;;;;6118767;19;1074;-64
2022/11/17 04:16:11;;;;;;;;;;;;;;;;;;6110268;19;1784;-64
2022/11/17 04:18:14;;;;;;;;;;;;;;;;;;6122929;19;1645;-65
2022/11/17 04:20:17;;;;;;;;;;;;;;;;;;6120243;19;1906;-64
2022/11/17 04:22:20;;;;;;;;;;;;;;;;;;6119039;19;2082;-64
2022/11/17 04:24:23;;;;;;;;;;;;;;;;;;6122380;19;1925;-64
2022/11/17 04:28:38;;;;;;;;;;;;;;;;;;6123520;19;1636;-64
2022/11/17 04:30:41;;;;;;;;;;;;;;;;;;6123870;19;1730;-64
2022/11/17 04:32:44;;;;;;;;;;;;;;;;;;6122545;19;2076;-66
2022/11/17 04:34:47;;;;;;;;;;;;;;;;;;6124548;19;2107;-64
2022/11/17 04:36:50;;;;;;;;;;;;;;;;;;6119108;19;1718;-65
2022/11/17 04:38:53;;;;;;;;;;;;;;;;;;6103600;19;2172;-64
2022/11/17 04:43:11;;;;;;;;;;;;;;;;;;6122661;19;2085;-64
2022/11/17 04:45:14;;;;;;;;;;;;;;;;;;6121503;19;2009;-65
2022/11/17 04:47:17;;;;;;;;;;;;;;;;;;6118937;19;970;-63
2022/11/17 04:49:20;;;;;;;;;;;;;;;;;;6094810;19;2168;-68
2022/11/17 04:51:23;;;;;;;;;;;;;;;;;;6119337;19;1735;-63
2022/11/17 04:53:26;;;;;;;;;;;;;;;;;;6122363;19;1918;-63
2022/11/17 04:55:29;;;;;;;;;;;;;;;;;;6122591;19;1831;-63
2022/11/17 04:57:32;;;;;;;;;;;;;;;;;;6121148;19;1908;-63
2022/11/17 04:59:35;;;;;;;;;;;;;;;;;;6116594;19;1670;-62
2022/11/17 05:01:38;;;;;;;;;;;;;;;;;;6094773;19;2252;-64
2022/11/17 05:03:41;;;;;;;;;;;;;;;;;;6122154;19;2108;-65
2022/11/17 05:05:44;;;;;;;;;;;;;;;;;;6120515;19;2036;-63
2022/11/17 05:07:47;;;;;;;;;;;;;;;;;;6123156;19;1913;-62
2022/11/17 05:09:50;;;;;;;;;;;;;;;;;;6120333;19;2076;-69
2022/11/17 05:14:08;;;;;;;;;;;;;;;;;;6116886;19;2256;-63
2022/11/17 05:18:26;;;;;;;;;;;;;;;;;;6123299;19;1869;-63
2022/11/17 05:20:29;;;;;;;;;;;;;;;;;;6117260;19;1867;-61
2022/11/17 05:24:47;;;;;;;;;;;;;;;;;;6095261;19;1865;-63
2022/11/17 05:26:50;;;;;;;;;;;;;;;;;;6118515;19;1026;-63
2022/11/17 05:28:53;;;;;;;;;;;;;;;;;;6117702;19;1029;-63
2022/11/17 05:30:56;;;;;;;;;;;;;;;;;;6119291;19;982;-63
2022/11/17 05:32:59;;;;;;;;;;;;;;;;;;6118222;19;1045;-63
2022/11/17 05:35:02;;;;;;;;;;;;;;;;;;6092247;19;1242;-63
2022/11/17 05:37:05;;;;;;;;;;;;;;;;;;6117111;19;1412;-63
2022/11/17 05:39:08;;;;;;;;;;;;;;;;;;6118433;19;979;-63
2022/11/17 05:41:11;;;;;;;;;;;;;;;;;;6117064;19;1145;-63
2022/11/17 05:43:14;;;;;;;;;;;;;;;;;;6118882;19;1049;-63
2022/11/17 05:45:17;;;;;;;;;;;;;;;;;;6117751;19;1852;-63
2022/11/17 05:47:20;;;;;;;;;;;;;;;;;;6092361;19;1838;-63
2022/11/17 05:49:23;;;;;;;;;;;;;;;;;;6117186;19;1034;-63
2022/11/17 05:51:26;;;;;;;;;;;;;;;;;;6116894;19;1066;-63
2022/11/17 05:53:29;;;;;;;;;;;;;;;;;;6118937;19;1141;-63
2022/11/17 05:55:32;;;;;;;;;;;;;;;;;;6117621;19;1049;-63
2022/11/17 05:57:35;;;;;;;;;;;;;;;;;;6097869;19;1568;-63
2022/11/17 05:59:38;;;;;;;;;;;;;;;;;;6113036;19;1021;-63
2022/11/17 06:01:41;;;;;;;;;;;;;;;;;;6117875;19;1285;-62
2022/11/17 06:03:46;;;;;;;;;;;;;;;;;;6117383;19;1156;-63
2022/11/17 06:05:49;;;;;;;;;;;;;;;;;;6117888;19;1288;-63
2022/11/17 06:07:53;;;;;;;;;;;;;;;;;;6117512;19;1054;-63
2022/11/17 06:09:56;;;;;;;;;;;;;;;;;;6091106;19;1657;-63
2022/11/17 06:11:59;;;;;;;;;;;;;;;;;;6116981;19;1042;-64
2022/11/17 06:14:02;;;;;;;;;;;;;;;;;;6117197;19;1278;-64
2022/11/17 06:16:05;;;;;;;;;;;;;;;;;;6118470;19;1057;-64
2022/11/17 06:18:08;;;;;;;;;;;;;;;;;;6117191;19;1058;-63
2022/11/17 06:20:11;;;;;;;;;;;;;;;;;;6102893;19;1279;-63
2022/11/17 06:22:14;;;;;;;;;;;;;;;;;;6105228;19;1165;-63
2022/11/17 06:24:17;;;;;;;;;;;;;;;;;;6116879;19;1829;-65
2022/11/17 06:26:20;;;;;;;;;;;;;;;;;;6118568;19;976;-63
2022/11/17 06:28:23;;;;;;;;;;;;;;;;;;6115873;19;1066;-64
2022/11/17 06:30:26;;;;;;;;;;;;;;;;;;6116624;19;1043;-64
2022/11/17 06:32:29;;;;;;;;;;;;;;;;;;6092113;19;1512;-64
2022/11/17 06:34:33;;;;;;;;;;;;;;;;;;6115873;19;1124;-64
2022/11/17 06:36:36;;;;;;;;;;;;;;;;;;6117205;19;1129;-63
2022/11/17 06:38:39;;;;;;;;;;;;;;;;;;6118110;19;1152;-62
2022/11/17 06:40:42;;;;;;;;;;;;;;;;;;6116538;19;1115;-62
2022/11/17 06:45:00;;;;;;;;;;;;;;;;;;6112947;19;1880;-62
2022/11/17 06:47:03;;;;;;;;;;;;;;;;;;6124275;19;1046;-62
2022/11/17 06:49:06;;;;;;;;;;;;;;;;;;6124499;19;1015;-61
2022/11/17 06:51:09;;;;;;;;;;;;;;;;;;6121311;19;1040;-62
2022/11/17 06:53:12;;;;;;;;;;;;;;;;;;6123545;19;1125;-62
2022/11/17 06:55:15;;;;;;;;;;;;;;;;;;6096227;19;1290;-62
2022/11/17 06:57:18;;;;;;;;;;;;;;;;;;6120659;19;991;-62
2022/11/17 06:59:21;;;;;;;;;;;;;;;;;;6123576;19;1132;-62
2022/11/17 07:01:24;;;;;;;;;;;;;;;;;;6121672;19;1275;-68
2022/11/17 07:03:27;;;;;;;;;;;;;;;;;;6123482;19;1057;-68
2022/11/17 07:05:30;;;;;;;;;;;;;;;;;;6108883;19;1841;-69
2022/11/17 07:07:33;;;;;;;;;;;;;;;;;;6110725;19;1168;-67
2022/11/17 07:09:36;;;;;;;;;;;;;;;;;;6123179;19;1061;-68
2022/11/17 07:11:39;;;;;;;;;;;;;;;;;;6120354;19;1627;-69
2022/11/17 07:13:42;;;;;;;;;;;;;;;;;;6123097;19;1136;-69
2022/11/17 07:15:45;;;;;;;;;;;;;;;;;;6120734;19;1436;-69
2022/11/17 07:17:48;;;;;;;;;;;;;;;;;;6097340;19;1078;-68
2022/11/17 07:19:52;;;;;;;;;;;;;;;;;;6122447;19;1046;-67
2022/11/17 07:21:55;;;;;;;;;;;;;;;;;;6123271;19;1033;-66
2022/11/17 07:23:58;;;;;;;;;;;;;;;;;;6122551;19;1263;-68
2022/11/17 07:26:01;;;;;;;;;;;;;;;;;;6121385;19;1841;-69
2022/11/17 07:28:04;;;;;;;;;;;;;;;;;;6109350;19;1151;-69
2022/11/17 07:30:08;;;;;;;;;;;;;;;;;;6109803;19;1132;-68
2022/11/17 07:32:12;;;;;;;;;;;;;;;;;;6122667;19;1010;-68
2022/11/17 07:34:15;;;;;;;;;;;;;;;;;;6121821;19;1074;-68
2022/11/17 07:36:18;;;;;;;;;;;;;;;;;;6122978;19;1057;-69
2022/11/17 07:38:21;;;;;;;;;;;;;;;;;;6123179;19;1072;-67
2022/11/17 07:40:24;;;;;;;;;;;;;;;;;;6094497;19;1408;-68
2022/11/17 07:42:27;;;;;;;;;;;;;;;;;;6119471;19;1145;-64
2022/11/17 07:44:30;;;;;;;;;;;;;;;;;;6120647;19;1841;-65
2022/11/17 07:46:33;;;;;;;;;;;;;;;;;;6120751;19;1035;-62
2022/11/17 07:48:36;;;;;;;;;;;;;;;;;;6122458;19;1289;-63
2022/11/17 07:50:40;;;;;;;;;;;;;;;;;;6107666;19;1115;-63
2022/11/17 07:52:43;;;;;;;;;;;;;;;;;;6106817;19;2067;-64
2022/11/17 07:54:46;;;;;;;;;;;;;;;;;;6120765;19;978;-63
2022/11/17 07:56:49;;;;;;;;;;;;;;;;;;6117070;19;1066;-64
2022/11/17 07:58:52;;;;;;;;;;;;;;;;;;6122551;19;1035;-65
2022/11/17 08:00:55;;;;;;;;;;;;;;;;;;6119593;19;1880;-64
2022/11/17 08:02:58;;;;;;;;;;;;;;;;;;6093444;19;1727;-63
2022/11/17 08:05:01;;;;;;;;;;;;;;;;;;6119685;19;1849;-63
2022/11/17 08:07:03;;;;;;;;;;;;;;;;;;6121999;19;1049;-62
2022/11/17 08:09:09;;;;;;;;;;;;;;;;;;6122353;19;979;-64
2022/11/17 08:11:12;;;;;;;;;;;;;;;;;;6119221;19;967;-63
2022/11/17 08:13:15;;;;;;;;;;;;;;;;;;6109024;19;1434;-62
2022/11/17 08:15:18;;;;;;;;;;;;;;;;;;6107001;19;1648;-64
2022/11/17 08:17:21;;;;;;;;;;;;;;;;;;6119718;19;1089;-64
2022/11/17 08:19:24;;;;;;;;;;;;;;;;;;6121082;19;1038;-65
2022/11/17 08:21:27;;;;;;;;;;;;;;;;;;6121832;19;1049;-64
2022/11/17 08:23:30;;;;;;;;;;;;;;;;;;6121115;19;1065;-64
2022/11/17 08:25:33;;;;;;;;;;;;;;;;;;6093894;19;1865;-64
2022/11/17 08:27:36;;;;;;;;;;;;;;;;;;6119698;19;1626;-64
2022/11/17 08:29:39;;;;;;;;;;;;;;;;;;6119219;19;1046;-64
2022/11/17 08:31:45;;;;;;;;;;;;;;;;;;6119791;19;1056;-64
2022/11/17 08:33:47;;;;;;;;;;;;;;;;;;6120631;19;1038;-64
2022/11/17 08:35:50;;;;;;;;;;;;;;;;;;6117643;19;1978;-64
2022/11/17 08:37:53;;;;;;;;;;;;;;;;;;6100948;19;1600;-63
2022/11/17 08:39:56;;;;;;;;;;;;;;;;;;6119415;19;978;-65
2022/11/17 08:41:59;;;;;;;;;;;;;;;;;;6118169;19;1120;-65
2022/11/17 08:44:02;;;;;;;;;;;;;;;;;;6119273;19;979;-65
2022/11/17 08:46:05;;;;;;;;;;;;;;;;;;6119310;19;1843;-63
2022/11/17 08:48:09;;;;;;;;;;;;;;;;;;6092907;19;1227;-64
2022/11/17 08:50:11;;;;;;;;;;;;;;;;;;6120191;19;1477;-64
2022/11/17 08:52:14;;;;;;;;;;;;;;;;;;6119028;19;1125;-64
2022/11/17 08:54:17;;;;;;;;;;;;;;;;;;6121167;19;1304;-64
2022/11/17 08:56:20;;;;;;;;;;;;;;;;;;6118637;19;1046;-63
2022/11/17 08:58:23;;;;;;;;;;;;;;;;;;6118936;19;1132;-64
2022/11/17 09:00:26;;;;;;;;;;;;;;;;;;6092919;19;1454;-63
2022/11/17 09:02:29;;;;;;;;;;;;;;;;;;6118771;19;1319;-64
2022/11/17 09:04:32;;;;;;;;;;;;;;;;;;6120112;19;1057;-64
2022/11/17 09:06:35;;;;;;;;;;;;;;;;;;6119204;19;1856;-63
2022/11/17 09:08:38;;;;;;;;;;;;;;;;;;6119598;19;1053;-65
2022/11/17 09:10:41;;;;;;;;;;;;;;;;;;6096623;19;1594;-63
2022/11/17 09:12:44;;;;;;;;;;;;;;;;;;6118589;19;1085;-65
2022/11/17 09:14:47;;;;;;;;;;;;;;;;;;6119629;19;1437;-64
2022/11/17 09:16:50;;;;;;;;;;;;;;;;;;6118949;19;1041;-64
2022/11/17 09:18:54;;;;;;;;;;;;;;;;;;6117843;19;1227;-62
2022/11/17 09:20:57;;;;;;;;;;;;;;;;;;6119434;19;1224;-64
2022/11/17 09:23:00;;;;;;;;;;;;;;;;;;6092764;19;1654;-65
2022/11/17 09:25:03;;;;;;;;;;;;;;;;;;6116952;19;1841;-64
2022/11/17 09:27:07;;;;;;;;;;;;;;;;;;6120257;19;1536;-64
2022/11/17 09:29:10;;;;;;;;;;;;;;;;;;6118211;19;1852;-63
2022/11/17 09:31:13;;;;;;;;;;;;;;;;;;6119778;19;1518;-63
2022/11/17 09:33:16;;;;;;;;;;;;;;;;;;6104135;19;1449;-63
2022/11/17 09:35:19;;;;;;;;;;;;;;;;;;6110731;19;1345;-64
2022/11/17 09:37:22;;;;;;;;;;;;;;;;;;6118325;19;1037;-66
2022/11/17 09:39:25;;;;;;;;;;;;;;;;;;6117569;19;1148;-64
2022/11/17 09:41:27;;;;;;;;;;;;;;;;;;6118842;19;1141;-64
2022/11/17 09:43:30;;;;;;;;;;;;;;;;;;6118171;19;1077;-64
2022/11/17 09:45:33;;;;;;;;;;;;;;;;;;6092502;19;1861;-63
2022/11/17 09:47:36;;;;;;;;;;;;;;;;;;6117675;19;1038;-64
2022/11/17 09:49:39;;;;;;;;;;;;;;;;;;6117434;19;1057;-63
2022/11/17 09:51:42;;;;;;;;;;;;;;;;;;6119594;19;1023;-63
2022/11/17 09:53:45;;;;;;;;;;;;;;;;;;6119269;19;1871;-70
2022/11/17 09:55:48;;;;;;;;;;;;;;;;;;6105555;19;1268;-70
2022/11/17 09:57:51;;;;;;;;;;;;;;;;;;6108363;19;1138;-70
2022/11/17 09:59:54;;;;;;;;;;;;;;;;;;6119100;19;1018;-67
2022/11/17 10:01:57;;;;;;;;;;;;;;;;;;6117807;19;1235;-69
2022/11/17 10:04:00;;;;;;;;;;;;;;;;;;6119014;19;1050;-70
2022/11/17 10:06:03;;;;;;;;;;;;;;;;;;6118209;19;1857;-71
2022/11/17 10:08:07;;;;;;;;;;;;;;;;;;6092683;19;1639;-69
2022/11/17 10:10:10;;;;;;;;;;;;;;;;;;6117922;19;979;-70
2022/11/17 10:12:12;;;;;;;;;;;;;;;;;;6118652;19;1050;-67
2022/11/17 10:14:15;;;;;;;;;;;;;;;;;;6119015;19;991;-70
2022/11/17 10:16:18;;;;;;;;;;;;;;;;;;6119189;19;1189;-71
2022/11/17 10:18:21;;;;;;;;;;;;;;;;;;6105258;19;1156;-70
2022/11/17 10:20:24;;;;;;;;;;;;;;;;;;6103856;19;1204;-70
2022/11/17 10:22:27;;;;;;;;;;;;;;;;;;6118273;19;978;-67
2022/11/17 10:24:30;;;;;;;;;;;;;;;;;;6117453;19;959;-67
2022/11/17 10:26:33;;;;;;;;;;;;;;;;;;6117021;19;1841;-67
2022/11/17 10:28:36;;;;;;;;;;;;;;;;;;6117255;19;1042;-66
2022/11/17 10:30:39;;;;;;;;;;;;;;;;;;6090179;19;1546;-66
2022/11/17 10:32:42;;;;;;;;;;;;;;;;;;6116126;19;1609;-65
2022/11/17 10:34:46;;;;;;;;;;;;;;;;;;6117983;19;1112;-66
2022/11/17 10:36:49;;;;;;;;;;;;;;;;;;6116855;19;1190;-66
2022/11/17 10:38:52;;;;;;;;;;;;;;;;;;6115657;19;1018;-67
2022/11/17 10:40:56;;;;;;;;;;;;;;;;;;6102967;19;1537;-66
2022/11/17 10:42:59;;;;;;;;;;;;;;;;;;6102871;19;1207;-67
2022/11/17 10:45:02;;;;;;;;;;;;;;;;;;6118032;19;962;-66
2022/11/17 10:47:06;;;;;;;;;;;;;;;;;;6115400;19;1865;-66
2022/11/17 10:49:09;;;;;;;;;;;;;;;;;;6115979;19;1022;-63
2022/11/17 10:51:12;;;;;;;;;;;;;;;;;;6115912;19;1347;-67
2022/11/17 10:53:15;;;;;;;;;;;;;;;;;;6092053;19;1509;-67
2022/11/17 10:55:18;;;;;;;;;;;;;;;;;;6114834;19;1049;-67
2022/11/17 10:57:21;;;;;;;;;;;;;;;;;;6115312;19;1006;-66
2022/11/17 10:59:24;;;;;;;;;;;;;;;;;;6117558;19;1026;-66
2022/11/17 11:01:27;;;;;;;;;;;;;;;;;;6114859;19;1287;-66
2022/11/17 11:03:30;;;;;;;;;;;;;;;;;;6102742;19;1198;-66
2022/11/17 11:05:33;;;;;;;;;;;;;;;;;;6102773;19;2065;-65
2022/11/17 11:07:36;;;;;;;;;;;;;;;;;;6117396;19;1543;-65
2022/11/17 11:09:39;;;;;;;;;;;;;;;;;;6115894;19;1035;-66
2022/11/17 11:11:42;;;;;;;;;;;;;;;;;;6115776;19;1037;-65
2022/11/17 11:13:45;;;;;;;;;;;;;;;;;;6117056;19;1014;-67
2022/11/17 11:15:48;;;;;;;;;;;;;;;;;;6090219;19;1451;-65
2022/11/17 11:17:52;;;;;;;;;;;;;;;;;;6115147;19;1532;-67
2022/11/17 11:19:55;;;;;;;;;;;;;;;;;;6116850;19;1061;-66
2022/11/17 11:21:58;;;;;;;;;;;;;;;;;;6117261;19;1021;-66
2022/11/17 11:24:01;;;;;;;;;;;;;;;;;;6115927;19;1065;-66
2022/11/17 11:26:04;;;;;;;;;;;;;;;;;;6103029;19;1856;-66
2022/11/17 11:28:07;;;;;;;;;;;;;;;;;;6103709;19;1640;-66
2022/11/17 11:30:10;;;;;;;;;;;;;;;;;;6116400;19;1042;-65
2022/11/17 11:32:13;;;;;;;;;;;;;;;;;;6122118;19;1020;-63
2022/11/17 11:34:16;;;;;;;;;;;;;;;;;;6120918;19;1110;-66
2022/11/17 11:36:19;;;;;;;;;;;;;;;;;;6122727;19;1081;-65
2022/11/17 11:38:22;;;;;;;;;;;;;;;;;;6093987;19;1434;-66
2022/11/17 11:40:25;;;;;;;;;;;;;;;;;;6120629;19;1069;-66
2022/11/17 11:42:28;;;;;;;;;;;;;;;;;;6120437;19;1165;-65
2022/11/17 11:44:31;;;;;;;;;;;;;;;;;;6120887;19;1061;-66
2022/11/17 11:46:33;;;;;;;;;;;;;;;;;;6121192;19;1849;-66
2022/11/17 11:48:36;;;;;;;;;;;;;;;;;;6116150;19;1132;-66
2022/11/17 11:50:39;;;;;;;;;;;;;;;;;;6102502;19;1384;-66
2022/11/17 11:52:42;;;;;;;;;;;;;;;;;;6121812;19;1078;-62
2022/11/17 11:54:45;;;;;;;;;;;;;;;;;;6120823;19;1255;-66
2022/11/17 11:56:48;;;;;;;;;;;;;;;;;;6119946;19;1128;-67
2022/11/17 11:58:51;;;;;;;;;;;;;;;;;;6122819;19;1147;-65
2022/11/17 12:00:54;;;;;;;;;;;;;;;;;;6095885;19;1128;-70
2022/11/17 12:02:57;;;;;;;;;;;;;;;;;;6119660;19;1285;-70
2022/11/17 12:05:00;;;;;;;;;;;;;;;;;;6122614;19;1030;-70
2022/11/17 12:07:03;;;;;;;;;;;;;;;;;;6120519;19;1858;-70
2022/11/17 12:09:06;;;;;;;;;;;;;;;;;;6121475;19;963;-70
2022/11/17 12:11:59;;;;;;;;;;;;;;;;;;6122035;19;1049;-68
2022/11/17 12:13:32;;;;;;;;;;;;;;;;;;6108542;19;1430;-69
2022/11/17 12:15:35;;;;;;;;;;;;;;;;;;6120999;19;1065;-70
2022/11/17 12:17:38;;;;;;;;;;;;;;;;;;6121969;19;1013;-68
2022/11/17 12:19:41;;;;;;;;;;;;;;;;;;6121802;19;983;-66
2022/11/17 12:21:45;;;;;;;;;;;;;;;;;;6121321;19;2124;-66
2022/11/17 12:23:48;;;;;;;;;;;;;;;;;;6095820;19;1991;-64
2022/11/17 12:25:52;;;;;;;;;;;;;;;;;;6120333;19;1042;-66
2022/11/17 12:27:55;;;;;;;;;;;;;;;;;;6119258;19;1866;-65
2022/11/17 12:29:58;;;;;;;;;;;;;;;;;;6120862;19;1018;-65
2022/11/17 12:32:01;;;;;;;;;;;;;;;;;;6119568;19;1066;-65
2022/11/17 12:34:04;;;;;;;;;;;;;;;;;;6112163;19;1077;-64
2022/11/17 12:36:06;;;;;;;;;;;;;;;;;;6104516;19;1532;-65
2022/11/17 12:38:09;;;;;;;;;;;;;;;;;;6123141;19;1269;-65
2022/11/17 12:40:12;;;;;;;;;;;;;;;;;;6120920;19;1116;-65
2022/11/17 12:42:15;;;;;;;;;;;;;;;;;;6117962;19;1128;-65
2022/11/17 12:44:18;;;;;;;;;;;;;;;;;;6121602;19;1024;-64
2022/11/17 12:46:21;;;;;;;;;;;;;;;;;;6094366;19;2004;-65
2022/11/17 12:48:24;;;;;;;;;;;;;;;;;;6120822;19;942;-65
2022/11/17 12:50:27;;;;;;;;;;;;;;;;;;6119164;19;1036;-65
2022/11/17 12:52:30;;;;;;;;;;;;;;;;;;6118717;19;1054;-65
2022/11/17 12:54:33;;;;;;;;;;;;;;;;;;6119243;19;994;-64
2022/11/17 12:56:36;;;;;;;;;;;;;;;;;;6112729;19;1066;-64
2022/11/17 12:58:39;;;;;;;;;;;;;;;;;;6102494;19;1930;-66
2022/11/17 13:00:42;;;;;;;;;;;;;;;;;;6119590;19;1866;-67
2022/11/17 13:02:45;;;;;;;;;;;;;;;;;;6118969;19;1411;-66
2022/11/17 13:04:48;;;;;;;;;;;;;;;;;;6120968;19;1009;-69
2022/11/17 13:06:51;;;;;;;;;;;;;;;;;;6117949;19;1864;-66
2022/11/17 13:08:54;;;;;;;;;;;;;;;;;;6092768;19;1213;-65
2022/11/17 13:10:56;;;;;;;;;;;;;;;;;;6120162;19;1106;-65
2022/11/17 13:12:59;;;;;;;;;;;;;;;;;;6118883;19;1364;-65
2022/11/17 13:15:03;;;;;;;;;;;;;;;;;;6119982;19;1009;-66
2022/11/17 13:17:07;;;;;;;;;;;;;;;;;;6120396;19;1061;-66
2022/11/17 13:19:09;;;;;;;;;;;;;;;;;;6118331;19;1109;-64
2022/11/17 13:21:12;;;;;;;;;;;;;;;;;;6093361;19;1710;-66
2022/11/17 13:23:15;;;;;;;;;;;;;;;;;;6117744;19;959;-66
2022/11/17 13:25:18;;;;;;;;;;;;;;;;;;6118616;19;1058;-66
2022/11/17 13:27:21;;;;;;;;;;;;;;;;;;6119538;19;1839;-66
2022/11/17 13:29:24;;;;;;;;;;;;;;;;;;6117141;19;2006;-66
2022/11/17 13:31:27;;;;;;;;;;;;;;;;;;6093582;19;1329;-66
2022/11/17 13:33:31;;;;;;;;;;;;;;;;;;6118394;19;1073;-65
2022/11/17 13:35:34;;;;;;;;;;;;;;;;;;6118263;19;1066;-68
2022/11/17 13:37:40;;;;;;;;;;;;;;;21.56;nan;93858.31;6119704;19;1790;-70
2022/11/17 13:39:54;;;;;;;;;;;;;;;21.56;nan;93852.97;6119267;19;1017;-66
2022/11/17 13:41:59;;;;;;;;;;;;;;;21.55;nan;93861.25;6118097;19;1099;-67
2022/11/17 13:44:02;;;;;;;;;;;;;;;21.54;nan;93881.81;6099443;19;1571;-66
2022/11/17 13:46:06;;;;;;;;;;;;;;;21.60;nan;93866.66;6119439;19;1054;-67
2022/11/17 13:48:31;;;;;;;;;;;;;;;21.59;nan;93883.75;6118321;19;1849;-66
2022/11/17 13:50:36;;;;;;;;;;;;;;;21.59;nan;93878.41;6119046;19;1085;-67
2022/11/17 13:52:42;;;;;;;;;;;;;;;21.57;nan;93880.50;6116716;19;1105;-67
2022/11/17 13:54:46;;;;;;;;;;;;;;;21.53;nan;93890.88;6091393;19;1324;-66
2022/11/17 13:56:53;;;;;;;;;;;;;;;21.52;nan;93878.59;6119363;19;1058;-67
2022/11/17 13:58:56;;;;;;;;;;;;;;;21.52;nan;93883.13;6118989;19;1093;-66
2022/11/17 14:01:00;;;;;;;;;;;;;;;21.53;nan;93880.19;6118958;19;1029;-69
2022/11/17 14:03:05;;;;;;;;;;;;;;;21.59;nan;93907.81;6117746;19;1373;-69
2022/11/17 14:05:21;;;;;;;;;;;;;;;21.52;nan;93883.94;6106470;19;1498;-69
2022/11/17 14:07:31;;;;;;;;;;;;;;;21.50;nan;93880.69;6120322;19;1842;-69
2022/11/17 14:09:37;;;;;;;;;;;;;;;21.49;nan;93873.72;6118155;19;1050;-66
2022/11/17 14:11:42;;;;;;;;;;;;;;;21.48;nan;93888.13;6118723;19;1032;-67
2022/11/17 14:13:46;;;;;;;;;;;;;;;21.50;nan;93875.34;6117748;19;1078;-67
2022/11/17 14:15:55;;;;;;;;;;;;;;;21.48;nan;93888.13;6118836;19;1516;-68
2022/11/17 14:18:00;;;;;;;;;;;;;;;21.51;nan;93902.88;6099919;19;1129;-67
2022/11/17 14:20:18;;;;;;;;;;;;;;;21.52;nan;93896.47;6117780;19;1105;-67
2022/11/17 14:22:23;;;;;;;;;;;;;;;21.51;nan;93892.16;6117712;19;966;-67
2022/11/17 14:24:27;;;;;;;;;;;;;;;21.51;nan;93903.66;6118395;19;950;-67
2022/11/17 14:26:33;;;;;;;;;;;;;;;21.52;nan;93905.31;6118055;19;1035;-66
2022/11/17 14:28:36;;;;;;;;;;;;;;;21.55;nan;93904.00;6090970;19;1849;-65
2022/11/17 14:30:39;;;;;;;;;;;;;;;21.51;nan;93908.22;6117644;19;1061;-66